Etusivu
METAR-TAF:

METAR-TAF

Lentoasemat :

Lontoo-Southend, Englanti

Leveyspiiri: 51-34N, Pituuspiiri: 000-42E, korkeus merenpinnasta: 15 m

Tämänhetkinen sää

Tämä raportti tehtiin 25 minuuttia sitten, kello 17.50 UTC
Tuuli 5 kn etelästä
Lämpötila 3°C
Kosteus 75%
Ilmanpaine 1024 hPa
Näkyvyys 10 km tai enemmän
Muutamia pilviä 2100 ft:n korkeudessa
Hajonneita pilviä 2500 ft:n korkeudessa

METAR: EGMC 141750Z 19005KT 9999 FEW021 BKN025 03/M01 Q1024

Aika: 18:15 (18:15 UTC)

Sääennuste

Tämä raportti tehtiin 1 tunti ja 22 minuuttia sitten, kello 16.53 UTC
Ennuste voimassa 14. päivästä klo 18 UTC - 15. päivään klo 03 UTC
Tuuli 7 kn etelästä/kaakosta
Näkyvyys 10 km tai enemmän
Hajonneita pilviä 3000 ft:n korkeudessa

TAF: EGMC 141653Z 1418/1503 16007KT 9999 BKN030

Säähavainnot ja -ennusteet yli 4000 lentoasemalta (METAR- ja TAF-raportit).

Käytössä olevat sääasemat on merkitty karttaan keltaisilla ja punaisilla pisteillä.

Aseta hiiri pisteen päälle nähdäksesi sääaseman nimen.

Klikkaa sitten nähdäksesi säähavainnot ja -ennusteet.

Kartan vaihtaminen: klikkaa mustalla rastilla varustettuja vihreitä pisteitä, niin voit zoomata sisään; viivalla varustettua vihreää pistettä, niin voit zoomata ulos tai vihreitä nuolia, niin pääset viereisille kartoille.


METAR-TAF: